Time;durP1;ratioP1;P1;durP2;ratioP2;P2;SDS_P1;SDS_P2;PMS_P1;PMS_P2;Temp;Humidity;BMP_temperature;BMP_pressure;BME280_temperature;BME280_humidity;BME280_pressure;Samples;Min_cycle;Max_cycle;Signal;HPM_P1;HPM_P2
2023/03/25 00:00:56;;;;;;;1.10;0.50;;;7.70;99.90;;;;;;5091498;28;20441;-69
2023/03/25 00:03:25;;;;;;;10.70;0.83;;;7.40;99.90;;;;;;5090807;28;20414;-69
2023/03/25 00:05:51;;;;;;;1.33;0.50;;;7.20;99.90;;;;;;5091524;28;21037;-69
2023/03/25 00:08:17;;;;;;;1.30;0.60;;;7.10;99.90;;;;;;5091431;28;20422;-69
2023/03/25 00:10:43;;;;;;;2.40;1.03;;;7.20;99.90;;;;;;5091402;28;20462;-68
2023/03/25 00:13:12;;;;;;;2.37;0.70;;;7.00;99.90;;;;;;5090545;28;20263;-69
2023/03/25 00:15:41;;;;;;;6.10;1.00;;;7.00;99.90;;;;;;5090732;28;20200;-69
2023/03/25 00:18:07;;;;;;;3.00;0.80;;;7.10;99.90;;;;;;5093495;28;20422;-69
2023/03/25 00:20:32;;;;;;;2.13;1.03;;;7.10;99.90;;;;;;5091251;28;20422;-69
2023/03/25 00:22:58;;;;;;;1.70;0.73;;;7.10;99.90;;;;;;5090702;28;20196;-69
2023/03/25 00:25:23;;;;;;;1.10;0.60;;;7.10;99.90;;;;;;5090651;28;20265;-69
2023/03/25 00:27:49;;;;;;;1.20;0.60;;;7.00;99.90;;;;;;5090793;28;20188;-69
2023/03/25 00:30:16;;;;;;;4.20;0.80;;;6.90;99.90;;;;;;5090637;28;20200;-69
2023/03/25 00:32:48;;;;;;;3.67;1.13;;;6.90;99.90;;;;;;5090408;28;20191;-69
2023/03/25 00:35:16;;;;;;;1.40;0.73;;;6.80;99.90;;;;;;5090985;28;20984;-69
2023/03/25 00:37:42;;;;;;;1.30;0.60;;;6.90;99.90;;;;;;5090981;28;20422;-69
2023/03/25 00:40:10;;;;;;;3.63;0.93;;;6.90;99.90;;;;;;5090808;28;20528;-69
2023/03/25 00:42:36;;;;;;;7.73;1.37;;;6.90;99.90;;;;;;5089357;28;20506;-68
2023/03/25 00:45:02;;;;;;;2.30;1.07;;;6.80;99.90;;;;;;5089454;28;20498;-68
2023/03/25 00:47:28;;;;;;;1.10;0.47;;;6.80;99.90;;;;;;5090698;28;20185;-69
2023/03/25 00:49:54;;;;;;;1.93;0.60;;;6.70;99.90;;;;;;5090752;28;20500;-69
2023/03/25 00:52:21;;;;;;;1.27;0.63;;;6.70;99.90;;;;;;5090444;28;20723;-68
2023/03/25 00:54:47;;;;;;;2.40;0.90;;;6.70;99.90;;;;;;5090757;28;20573;-68
2023/03/25 00:57:13;;;;;;;1.20;0.57;;;6.60;99.90;;;;;;5090160;28;20421;-68
2023/03/25 00:59:38;;;;;;;7.23;1.00;;;6.70;99.90;;;;;;5090361;28;20231;-69
2023/03/25 01:02:05;;;;;;;1.30;0.70;;;6.60;99.90;;;;;;5090169;28;20208;-68
2023/03/25 01:04:32;;;;;;;1.70;0.70;;;6.50;99.90;;;;;;5090469;28;20295;-68
2023/03/25 01:06:57;;;;;;;2.33;0.93;;;6.50;99.90;;;;;;5090372;28;20418;-68
2023/03/25 01:09:23;;;;;;;1.10;0.50;;;6.50;99.90;;;;;;5090411;28;20792;-68
2023/03/25 01:11:49;;;;;;;1.10;0.50;;;6.50;99.90;;;;;;5089505;28;20210;-68
2023/03/25 01:14:23;;;;;;;1.87;0.60;;;6.50;99.90;;;;;;5090157;28;20267;-68
2023/03/25 01:16:48;;;;;;;1.23;0.60;;;6.40;99.90;;;;;;5086253;28;20180;-68
2023/03/25 01:19:14;;;;;;;30.23;0.90;;;6.40;99.90;;;;;;5091888;28;20749;-68
2023/03/25 01:21:40;;;;;;;1.93;0.77;;;6.40;99.90;;;;;;5094405;28;20292;-68
2023/03/25 01:24:09;;;;;;;1.20;0.43;;;6.40;99.90;;;;;;5094306;28;20187;-68
2023/03/25 01:26:35;;;;;;;4.17;1.50;;;6.40;99.90;;;;;;5094429;28;20431;-68
2023/03/25 01:29:00;;;;;;;1.20;0.50;;;6.50;99.90;;;;;;5093776;28;20425;-68
2023/03/25 01:31:28;;;;;;;1.87;0.80;;;6.50;99.90;;;;;;5094161;28;20669;-68
2023/03/25 01:33:58;;;;;;;1.63;0.70;;;6.50;99.90;;;;;;5093979;28;20173;-68
2023/03/25 01:36:28;;;;;;;5.20;1.30;;;6.50;99.90;;;;;;5094487;28;20463;-68
2023/03/25 01:38:55;;;;;;;1.20;0.50;;;6.50;99.90;;;;;;5094411;28;20902;-68
2023/03/25 01:41:21;;;;;;;2.40;0.90;;;6.60;99.90;;;;;;5094013;28;20531;-68
2023/03/25 01:44:20;;;;;;;5.63;0.97;;;6.50;99.90;;;;;;5093490;28;20418;-68
2023/03/25 01:46:47;;;;;;;1.70;0.80;;;6.50;99.90;;;;;;5092337;28;20525;-68
2023/03/25 01:49:20;;;;;;;2.00;0.47;;;6.50;99.90;;;;;;5094166;28;20497;-68
2023/03/25 01:51:49;;;;;;;2.63;0.93;;;6.40;99.90;;;;;;5093617;28;20454;-68
2023/03/25 01:54:16;;;;;;;2.33;0.77;;;6.40;99.90;;;;;;5093705;28;20493;-68
2023/03/25 01:56:46;;;;;;;3.30;0.90;;;6.40;99.90;;;;;;5093671;28;20439;-68
2023/03/25 01:59:14;;;;;;;10.13;0.70;;;6.40;99.90;;;;;;5093147;28;20440;-68
2023/03/25 02:01:40;;;;;;;1.80;0.70;;;6.40;99.90;;;;;;5092594;28;20426;-68
2023/03/25 02:04:10;;;;;;;2.00;0.90;;;6.30;99.90;;;;;;5093439;28;20421;-68
2023/03/25 02:06:43;;;;;;;1.87;0.63;;;6.30;99.90;;;;;;5093645;28;20878;-68
2023/03/25 02:09:10;;;;;;;1.40;0.70;;;6.30;99.90;;;;;;5093397;28;20410;-68
2023/03/25 02:11:37;;;;;;;1.63;0.60;;;6.20;99.90;;;;;;5092924;28;20515;-68
2023/03/25 02:14:09;;;;;;;1.20;0.60;;;6.20;99.90;;;;;;5093164;28;20765;-68
2023/03/25 02:16:47;;;;;;;1.70;0.50;;;6.20;99.90;;;;;;5093554;28;20410;-68
2023/03/25 02:19:54;;;;;;;2.40;0.60;;;6.20;99.90;;;;;;5093289;28;20414;-68
2023/03/25 02:22:37;;;;;;;1.40;0.60;;;6.30;99.90;;;;;;5069913;28;20456;-68
2023/03/25 02:25:06;;;;;;;1.20;0.50;;;6.30;99.90;;;;;;5093751;28;20418;-68
2023/03/25 02:27:58;;;;;;;1.30;0.53;;;6.30;99.90;;;;;;5092713;28;20501;-68
2023/03/25 02:30:26;;;;;;;1.20;0.50;;;6.40;99.90;;;;;;5093166;28;20950;-68
2023/03/25 02:33:13;;;;;;;1.13;0.50;;;6.50;99.90;;;;;;5091372;28;20411;-68
2023/03/25 02:35:51;;;;;;;1.10;0.60;;;6.50;99.90;;;;;;5090926;28;20498;-68
2023/03/25 02:38:39;;;;;;;2.07;0.70;;;6.50;99.90;;;;;;5093139;28;20419;-68
2023/03/25 02:41:40;;;;;;;1.50;0.60;;;6.50;99.90;;;;;;5092153;28;20410;-69
2023/03/25 02:44:11;;;;;;;1.20;0.40;;;6.40;99.90;;;;;;5090097;28;20421;-68
2023/03/25 02:46:40;;;;;;;1.10;0.50;;;6.30;99.90;;;;;;5094460;28;20410;-69
2023/03/25 02:49:15;;;;;;;2.07;0.70;;;6.20;99.90;;;;;;5093935;28;20410;-68
2023/03/25 02:52:04;;;;;;;1.10;0.40;;;6.10;99.90;;;;;;5092002;28;20481;-67
2023/03/25 02:54:32;;;;;;;1.50;0.80;;;6.00;99.90;;;;;;5085593;28;20789;-67
2023/03/25 02:56:59;;;;;;;2.30;0.80;;;5.70;99.90;;;;;;5092400;28;20473;-67
2023/03/25 02:59:28;;;;;;;1.20;0.50;;;5.60;99.90;;;;;;5086440;28;20464;-67
2023/03/25 03:01:57;;;;;;;2.40;0.70;;;5.50;99.90;;;;;;5092099;28;20419;-67
2023/03/25 03:04:25;;;;;;;1.10;0.50;;;5.40;99.90;;;;;;5092274;28;20411;-67
2023/03/25 03:06:54;;;;;;;1.50;0.60;;;5.30;99.90;;;;;;5091017;28;20796;-67
2023/03/25 03:09:33;;;;;;;1.10;0.50;;;5.20;99.90;;;;;;5092616;28;20410;-67
2023/03/25 03:12:19;;;;;;;2.47;0.57;;;5.10;99.90;;;;;;5091969;28;20418;-67
2023/03/25 03:15:22;;;;;;;1.10;0.50;;;5.10;99.90;;;;;;5089343;28;20417;-67
2023/03/25 03:18:05;;;;;;;1.30;0.53;;;5.10;99.90;;;;;;5093319;28;20525;-67
2023/03/25 03:20:42;;;;;;;1.10;0.40;;;5.20;99.90;;;;;;5086701;28;20461;-67
2023/03/25 03:23:16;;;;;;;1.77;0.50;;;5.20;99.90;;;;;;5090639;28;20441;-67
2023/03/25 03:26:09;;;;;;;1.10;0.40;;;5.20;99.90;;;;;;5092125;28;20426;-67
2023/03/25 03:28:47;;;;;;;1.50;0.50;;;5.20;99.90;;;;;;5085511;28;20414;-67
2023/03/25 03:31:16;;;;;;;1.00;0.40;;;5.20;99.90;;;;;;5091780;28;20855;-67
2023/03/25 03:33:49;;;;;;;1.20;0.50;;;5.30;99.90;;;;;;5090115;28;20414;-67
2023/03/25 03:36:23;;;;;;;3.60;0.50;;;5.30;99.90;;;;;;5091886;28;20402;-67
2023/03/25 03:38:55;;;;;;;1.10;0.40;;;5.30;99.90;;;;;;5091922;28;20410;-67
2023/03/25 03:41:24;;;;;;;1.10;0.50;;;5.20;99.90;;;;;;5091684;28;20417;-67
2023/03/25 03:44:13;;;;;;;1.10;0.50;;;5.20;99.90;;;;;;5090380;28;20425;-67
2023/03/25 03:46:42;;;;;;;1.10;0.40;;;5.20;99.90;;;;;;5089676;28;20411;-67
2023/03/25 03:49:16;;;;;;;1.10;0.40;;;5.30;99.90;;;;;;5091343;28;20911;-67
2023/03/25 03:52:02;;;;;;;2.47;0.60;;;5.30;99.90;;;;;;5091602;28;20472;-67
2023/03/25 03:54:46;;;;;;;1.10;0.40;;;5.30;99.90;;;;;;5085403;28;20769;-67
2023/03/25 03:57:36;;;;;;;1.10;0.50;;;5.20;99.90;;;;;;5091551;28;20411;-67
2023/03/25 04:00:11;;;;;;;1.00;0.40;;;5.20;99.90;;;;;;5092139;28;20418;-67
2023/03/25 04:03:07;;;;;;;16.97;0.70;;;5.20;99.90;;;;;;5087772;28;20417;-67
2023/03/25 04:05:37;;;;;;;1.03;0.40;;;5.20;99.90;;;;;;5084658;28;20423;-67
2023/03/25 04:08:16;;;;;;;1.13;0.50;;;5.20;99.90;;;;;;5091291;28;20751;-67
2023/03/25 04:11:09;;;;;;;1.13;0.60;;;5.20;99.90;;;;;;5091659;28;20453;-67
2023/03/25 04:13:39;;;;;;;1.33;0.60;;;5.30;99.90;;;;;;5083640;28;20438;-67
2023/03/25 04:16:06;;;;;;;1.20;0.53;;;5.30;99.90;;;;;;5091416;28;20924;-67
2023/03/25 04:18:32;;;;;;;1.27;0.60;;;5.30;99.90;;;;;;5090836;28;21468;-67
2023/03/25 04:20:59;;;;;;;1.20;0.60;;;5.30;99.90;;;;;;5089800;28;20462;-67
2023/03/25 04:23:28;;;;;;;1.20;0.60;;;5.30;99.90;;;;;;5084089;28;20454;-67
2023/03/25 04:25:54;;;;;;;1.27;0.60;;;5.30;99.90;;;;;;5090475;28;20906;-67
2023/03/25 04:28:22;;;;;;;1.53;0.60;;;5.30;99.90;;;;;;5090578;28;20437;-67
2023/03/25 04:30:54;;;;;;;1.10;0.50;;;5.30;99.90;;;;;;5090911;28;20953;-67
2023/03/25 04:33:23;;;;;;;1.63;1.07;;;5.30;99.90;;;;;;5088547;28;20422;-67
2023/03/25 04:35:50;;;;;;;2.80;0.83;;;5.30;99.90;;;;;;5086000;28;20483;-67
2023/03/25 04:38:17;;;;;;;3.20;1.27;;;5.40;99.90;;;;;;5088634;28;20416;-67
2023/03/25 04:40:45;;;;;;;2.80;0.60;;;5.40;99.90;;;;;;5086255;28;20434;-67
2023/03/25 04:43:15;;;;;;;2.07;0.60;;;5.40;99.90;;;;;;5089103;28;20528;-67
2023/03/25 04:45:47;;;;;;;1.40;0.60;;;5.40;99.90;;;;;;5090834;28;20417;-67
2023/03/25 04:48:23;;;;;;;3.57;0.60;;;5.40;99.90;;;;;;5089559;28;20429;-67
2023/03/25 04:50:50;;;;;;;9.63;0.80;;;5.40;99.90;;;;;;5085939;28;20458;-67
2023/03/25 04:53:16;;;;;;;5.07;0.90;;;5.40;99.90;;;;;;5090270;28;20415;-67
2023/03/25 04:55:46;;;;;;;3.50;0.80;;;5.30;99.90;;;;;;5089973;28;20410;-67
2023/03/25 04:58:14;;;;;;;1.10;0.50;;;5.30;99.90;;;;;;5090141;28;20425;-67
2023/03/25 05:00:41;;;;;;;1.60;0.50;;;5.30;99.90;;;;;;5090768;28;20411;-67
2023/03/25 05:03:08;;;;;;;1.63;0.60;;;5.30;99.90;;;;;;5090235;28;20423;-67
2023/03/25 05:05:34;;;;;;;2.33;0.87;;;5.30;99.90;;;;;;5090303;28;20425;-67
2023/03/25 05:08:00;;;;;;;1.53;0.60;;;5.30;99.90;;;;;;5090439;28;20410;-67
2023/03/25 05:10:29;;;;;;;1.60;0.80;;;5.30;99.90;;;;;;5090261;28;20482;-67
2023/03/25 05:12:59;;;;;;;1.47;0.97;;;5.40;99.90;;;;;;5089043;28;20203;-67
2023/03/25 05:15:25;;;;;;;1.13;0.53;;;5.40;99.90;;;;;;5082868;28;20419;-67
2023/03/25 05:17:51;;;;;;;1.83;0.73;;;5.50;99.90;;;;;;5090456;28;20532;-67
2023/03/25 05:20:16;;;;;;;2.13;0.77;;;5.50;99.90;;;;;;5090442;28;20279;-67
2023/03/25 05:22:44;;;;;;;1.73;0.60;;;5.50;99.90;;;;;;5089794;28;20191;-67
2023/03/25 05:25:10;;;;;;;4.07;0.87;;;5.50;99.90;;;;;;5090413;28;20176;-67
2023/03/25 05:27:37;;;;;;;1.50;0.57;;;5.50;99.90;;;;;;5089525;28;20776;-67
2023/03/25 05:30:03;;;;;;;1.73;0.77;;;5.60;99.90;;;;;;5090628;28;20461;-67
2023/03/25 05:32:32;;;;;;;2.50;0.70;;;5.60;99.90;;;;;;5089951;28;20414;-67
2023/03/25 05:34:58;;;;;;;2.63;0.60;;;5.60;99.90;;;;;;5090817;28;20422;-67
2023/03/25 05:37:24;;;;;;;4.03;1.00;;;5.70;99.90;;;;;;5090131;28;20463;-67
2023/03/25 05:39:50;;;;;;;2.60;0.93;;;5.70;99.90;;;;;;5090643;28;20505;-67
2023/03/25 05:42:17;;;;;;;1.70;0.90;;;5.70;99.90;;;;;;5089283;28;20257;-67
2023/03/25 05:44:49;;;;;;;2.70;1.27;;;5.70;99.90;;;;;;5089911;28;20457;-67
2023/03/25 05:47:20;;;;;;;1.10;0.40;;;5.80;99.90;;;;;;5090572;28;20410;-67
2023/03/25 05:49:47;;;;;;;1.97;0.90;;;5.80;99.90;;;;;;5090034;28;20410;-67
2023/03/25 05:52:13;;;;;;;2.87;0.73;;;5.70;99.90;;;;;;5089373;28;20442;-67
2023/03/25 05:54:40;;;;;;;1.30;0.50;;;5.80;99.90;;;;;;5090018;28;20480;-67
2023/03/25 05:57:07;;;;;;;2.33;0.80;;;5.80;99.90;;;;;;5090108;28;20168;-67
2023/03/25 05:59:37;;;;;;;3.20;0.90;;;5.80;99.90;;;;;;5089540;28;20902;-67
2023/03/25 06:02:06;;;;;;;1.40;0.70;;;5.90;99.90;;;;;;5089884;28;20414;-67
2023/03/25 06:04:36;;;;;;;1.10;0.50;;;5.90;99.90;;;;;;5089474;28;20418;-67
2023/03/25 06:07:13;;;;;;;1.40;0.70;;;5.90;99.90;;;;;;5093024;28;20432;-67
2023/03/25 06:09:45;;;;;;;4.30;0.80;;;5.90;99.90;;;;;;5093392;28;20886;-67
2023/03/25 06:12:13;;;;;;;1.30;0.60;;;6.00;99.90;;;;;;5093133;28;20870;-67
2023/03/25 06:14:41;;;;;;;1.93;0.70;;;6.00;99.90;;;;;;5093045;28;20751;-66
2023/03/25 06:17:08;;;;;;;1.40;0.53;;;6.10;99.90;;;;;;5093688;28;20418;-66
2023/03/25 06:19:37;;;;;;;2.33;0.60;;;6.10;99.90;;;;;;5093508;28;20421;-66
2023/03/25 06:22:05;;;;;;;1.93;0.70;;;6.10;99.90;;;;;;5093402;28;20430;-67
2023/03/25 06:24:30;;;;;;;2.53;0.70;;;6.10;99.90;;;;;;5093682;28;20410;-66
2023/03/25 06:26:56;;;;;;;2.80;0.80;;;6.10;99.90;;;;;;5093639;28;20497;-66
2023/03/25 06:29:21;;;;;;;3.23;0.80;;;6.00;99.90;;;;;;5092820;28;20256;-66
2023/03/25 06:31:47;;;;;;;3.30;0.73;;;6.00;99.90;;;;;;5092899;28;20203;-66
2023/03/25 06:34:12;;;;;;;1.70;0.70;;;6.10;99.90;;;;;;5092935;28;20211;-67
2023/03/25 06:36:38;;;;;;;2.90;0.93;;;6.20;99.90;;;;;;5093209;28;20188;-67
2023/03/25 06:39:04;;;;;;;2.27;0.80;;;6.20;99.90;;;;;;5093089;28;20211;-67
2023/03/25 06:41:30;;;;;;;1.50;0.70;;;6.30;99.90;;;;;;5092684;28;20203;-67
2023/03/25 06:43:56;;;;;;;1.50;0.70;;;6.30;99.90;;;;;;5092721;28;21185;-67
2023/03/25 06:46:22;;;;;;;1.47;0.70;;;6.30;99.90;;;;;;5094722;28;20185;-67
2023/03/25 06:48:47;;;;;;;1.30;0.60;;;6.30;99.90;;;;;;5092812;28;20189;-67
2023/03/25 06:51:13;;;;;;;10.80;1.30;;;6.30;99.90;;;;;;5092954;28;20204;-66
2023/03/25 06:53:39;;;;;;;1.60;0.70;;;6.40;99.90;;;;;;5092532;28;20218;-67
2023/03/25 06:56:05;;;;;;;3.27;0.80;;;6.50;99.90;;;;;;5092652;28;20168;-67
2023/03/25 06:58:33;;;;;;;2.83;0.50;;;6.60;99.90;;;;;;5092305;28;20177;-67
2023/03/25 07:01:02;;;;;;;3.10;0.50;;;6.80;99.90;;;;;;5092852;28;21024;-67
2023/03/25 07:03:28;;;;;;;1.70;0.70;;;6.90;99.90;;;;;;5090357;28;20421;-67
2023/03/25 07:05:54;;;;;;;1.50;0.60;;;7.10;99.90;;;;;;5092660;28;20430;-67
2023/03/25 07:08:20;;;;;;;4.77;1.90;;;7.30;99.90;;;;;;5092834;28;20425;-67
2023/03/25 07:10:45;;;;;;;12.03;3.93;;;7.40;99.90;;;;;;5092533;28;20199;-67
2023/03/25 07:13:11;;;;;;;2.07;0.80;;;7.50;99.90;;;;;;5091582;28;20566;-67
2023/03/25 07:15:37;;;;;;;1.50;0.60;;;7.60;99.90;;;;;;5092703;28;20257;-68
2023/03/25 07:18:02;;;;;;;4.60;1.07;;;7.70;99.90;;;;;;5088867;28;20760;-68
2023/03/25 07:20:28;;;;;;;1.70;0.80;;;7.90;99.90;;;;;;5092453;28;20181;-68
2023/03/25 07:22:54;;;;;;;1.10;0.40;;;7.80;99.90;;;;;;5091553;28;20207;-68
2023/03/25 07:25:20;;;;;;;1.40;0.60;;;8.10;99.90;;;;;;5092470;28;20172;-68
2023/03/25 07:27:46;;;;;;;1.20;0.50;;;8.40;99.90;;;;;;5091513;28;20460;-68
2023/03/25 07:30:12;;;;;;;2.70;0.80;;;8.50;99.90;;;;;;5092399;28;20499;-68
2023/03/25 07:32:38;;;;;;;1.97;0.70;;;8.50;99.90;;;;;;5091140;28;20414;-69
2023/03/25 07:35:05;;;;;;;2.03;0.93;;;8.50;99.90;;;;;;5091441;28;20260;-68
2023/03/25 07:37:31;;;;;;;4.40;1.07;;;8.40;99.90;;;;;;5091149;28;20543;-68
2023/03/25 07:39:56;;;;;;;2.10;1.03;;;8.10;99.90;;;;;;5091271;28;20415;-68
2023/03/25 07:42:22;;;;;;;2.37;0.93;;;8.30;99.90;;;;;;5090387;28;20181;-68
2023/03/25 07:44:47;;;;;;;1.50;0.67;;;8.90;99.90;;;;;;5091012;28;20181;-69
2023/03/25 07:47:13;;;;;;;2.20;0.87;;;9.50;99.90;;;;;;5098660;28;20534;-69
2023/03/25 07:49:43;;;;;;;3.10;0.83;;;10.00;99.90;;;;;;5091032;28;20215;-69
2023/03/25 07:52:08;;;;;;;1.93;0.70;;;10.50;99.90;;;;;;5090837;28;20243;-69
2023/03/25 07:54:34;;;;;;;1.50;0.50;;;10.80;99.90;;;;;;5091286;28;20505;-69
2023/03/25 07:57:00;;;;;;;1.50;0.60;;;11.00;99.90;;;;;;5088975;28;20636;-69
2023/03/25 07:59:26;;;;;;;2.03;0.50;;;11.20;99.90;;;;;;5090584;28;20476;-68
2023/03/25 08:01:51;;;;;;;1.83;0.70;;;10.60;99.90;;;;;;5090572;28;20172;-70
2023/03/25 08:04:17;;;;;;;3.03;0.90;;;10.20;99.90;;;;;;5087627;28;20222;-70
2023/03/25 08:06:43;;;;;;;1.33;0.60;;;10.00;99.90;;;;;;5090804;28;20180;-68
2023/03/25 08:09:09;;;;;;;1.40;0.60;;;10.20;99.90;;;;;;5090484;28;20615;-70
2023/03/25 08:11:34;;;;;;;1.50;0.57;;;9.60;99.90;;;;;;5090188;28;20247;-71
2023/03/25 08:14:00;;;;;;;1.60;0.60;;;9.20;99.90;;;;;;5089931;28;20180;-73
2023/03/25 08:16:25;;;;;;;1.20;0.50;;;8.80;99.90;;;;;;5090914;28;20183;-73
2023/03/25 08:18:54;;;;;;;1.63;0.70;;;8.40;99.90;;;;;;5090553;28;20177;-72
2023/03/25 08:21:26;;;;;;;2.17;0.80;;;8.10;99.90;;;;;;5090305;28;20208;-73
2023/03/25 08:23:57;;;;;;;1.10;0.50;;;7.90;99.90;;;;;;5089992;28;20415;-73
2023/03/25 08:26:24;;;;;;;1.10;0.50;;;7.70;99.90;;;;;;5090427;28;20445;-73
2023/03/25 08:28:50;;;;;;;1.20;0.50;;;7.40;99.90;;;;;;5090140;28;20883;-72
2023/03/25 08:31:15;;;;;;;1.40;0.63;;;7.30;99.90;;;;;;5090715;28;20458;-72
2023/03/25 08:33:41;;;;;;;1.40;0.57;;;7.40;99.90;;;;;;5090859;28;20187;-72
2023/03/25 08:36:12;;;;;;;1.10;0.50;;;7.40;99.90;;;;;;5091055;28;20188;-72
2023/03/25 08:38:38;;;;;;;1.10;0.50;;;7.30;99.90;;;;;;5091118;28;20179;-71
2023/03/25 08:41:04;;;;;;;1.23;0.60;;;7.20;99.90;;;;;;5091166;28;20772;-72
2023/03/25 08:43:29;;;;;;;2.47;0.97;;;7.30;99.90;;;;;;5090228;28;20426;-72
2023/03/25 08:45:55;;;;;;;2.13;0.80;;;7.30;99.90;;;;;;5092397;28;20191;-73
2023/03/25 08:48:21;;;;;;;1.10;0.40;;;7.50;99.90;;;;;;5091333;28;20180;-73
2023/03/25 08:50:47;;;;;;;1.10;0.40;;;7.50;99.90;;;;;;5085629;28;20343;-73
2023/03/25 08:53:13;;;;;;;6.20;0.50;;;7.40;99.90;;;;;;5090204;28;20489;-72
2023/03/25 08:55:39;;;;;;;1.50;0.70;;;7.40;99.90;;;;;;5090732;28;20184;-73
2023/03/25 08:58:06;;;;;;;1.60;0.70;;;7.50;99.90;;;;;;5090242;28;20180;-73
2023/03/25 09:00:34;;;;;;;1.20;0.57;;;7.60;99.90;;;;;;5083402;28;20183;-73
2023/03/25 09:03:01;;;;;;;1.30;0.60;;;7.60;99.90;;;;;;5090345;28;20429;-73
2023/03/25 09:05:27;;;;;;;1.30;0.50;;;7.60;99.90;;;;;;5090693;28;20441;-73
2023/03/25 09:07:53;;;;;;;1.60;0.70;;;7.60;99.90;;;;;;5090300;28;20418;-73
2023/03/25 09:10:19;;;;;;;2.00;0.73;;;7.90;99.90;;;;;;5090734;28;20800;-73
2023/03/25 09:12:44;;;;;;;1.30;0.60;;;8.00;99.90;;;;;;5071224;28;20179;-73
2023/03/25 09:15:11;;;;;;;1.20;0.60;;;8.00;99.90;;;;;;5090938;28;20184;-73
2023/03/25 09:17:37;;;;;;;1.27;0.50;;;8.00;99.90;;;;;;5090514;28;20176;-73
2023/03/25 09:20:07;;;;;;;3.10;1.13;;;8.00;99.90;;;;;;5089764;28;20449;-73
2023/03/25 09:22:33;;;;;;;1.37;0.60;;;8.00;99.90;;;;;;5086823;28;20447;-71
2023/03/25 09:24:59;;;;;;;1.10;0.50;;;8.20;99.90;;;;;;5089850;28;20426;-72
2023/03/25 09:27:25;;;;;;;2.53;1.00;;;8.30;99.90;;;;;;5087245;28;20409;-73
2023/03/25 09:29:50;;;;;;;1.10;0.50;;;8.20;99.90;;;;;;5098374;28;20203;-72
2023/03/25 09:32:17;;;;;;;5.63;0.70;;;8.30;99.90;;;;;;5090712;28;20176;-72
2023/03/25 09:34:43;;;;;;;1.60;0.87;;;8.20;99.90;;;;;;5090667;28;20630;-72
2023/03/25 09:37:09;;;;;;;2.90;0.93;;;8.20;99.90;;;;;;5090263;28;20421;-69
2023/03/25 09:39:35;;;;;;;2.33;0.70;;;8.10;99.90;;;;;;5090447;28;20418;-69
2023/03/25 09:42:37;;;;;;;1.87;0.60;;;8.10;99.90;;;;;;5093171;28;20475;-69
2023/03/25 09:45:25;;;;;;;1.20;0.57;;;8.00;99.90;;;;;;5094727;28;20180;-69
2023/03/25 09:47:56;;;;;;;1.70;0.90;;;8.00;99.90;;;;;;5093456;28;20917;-69
2023/03/25 09:50:23;;;;;;;1.10;0.43;;;8.20;99.90;;;;;;5094140;28;20457;-71
2023/03/25 09:52:52;;;;;;;5.37;0.77;;;8.50;99.90;;;;;;5090476;28;20415;-71
2023/03/25 09:55:29;;;;;;;1.63;0.70;;;8.60;99.90;;;;;;5092304;28;20438;-71
2023/03/25 09:58:27;;;;;;;1.83;0.70;;;8.80;99.90;;;;;;5091901;28;20732;-71
2023/03/25 10:01:11;;;;;;;1.20;0.50;;;8.60;99.90;;;;;;5065870;28;20449;-68
2023/03/25 10:03:55;;;;;;;1.57;0.60;;;8.30;99.90;;;;;;5093594;28;20450;-68
2023/03/25 10:06:25;;;;;;;1.30;0.63;;;8.00;99.90;;;;;;5093560;28;20428;-68
2023/03/25 10:09:09;;;;;;;2.13;0.83;;;8.00;99.90;;;;;;5093892;28;20418;-68
2023/03/25 10:11:56;;;;;;;3.67;0.60;;;8.20;99.90;;;;;;5090781;28;20480;-68
2023/03/25 10:14:38;;;;;;;4.70;0.77;;;8.30;99.90;;;;;;5092860;28;20407;-68
2023/03/25 10:17:09;;;;;;;4.20;0.60;;;8.60;99.90;;;;;;5094323;28;20417;-68
2023/03/25 10:19:53;;;;;;;3.97;0.70;;;8.50;99.90;;;;;;5090360;28;20402;-72
2023/03/25 10:22:51;;;;;;;3.17;1.10;;;8.40;99.90;;;;;;5091054;28;20438;-70
2023/03/25 10:25:21;;;;;;;9.43;0.90;;;8.60;99.90;;;;;;5054569;28;20419;-70
2023/03/25 10:27:50;;;;;;;1.50;0.70;;;8.70;99.90;;;;;;5087713;28;20954;-69
2023/03/25 10:30:23;;;;;;;1.40;0.60;;;8.80;99.90;;;;;;5083617;28;20818;-70
2023/03/25 10:32:57;;;;;;;1.20;0.53;;;9.00;99.90;;;;;;5090516;28;20422;-69
2023/03/25 10:35:46;;;;;;;1.87;0.60;;;9.30;99.90;;;;;;5093051;28;20414;-68
2023/03/25 10:38:12;;;;;;;1.30;0.60;;;9.60;99.90;;;;;;5091845;28;20411;-68
2023/03/25 10:40:50;;;;;;;1.40;0.50;;;9.60;99.90;;;;;;5093211;28;20748;-68
2023/03/25 10:43:25;;;;;;;2.13;0.60;;;9.50;99.90;;;;;;5092150;28;20410;-68
2023/03/25 10:45:57;;;;;;;1.20;0.60;;;9.30;99.90;;;;;;5093803;28;20409;-68
2023/03/25 10:48:30;;;;;;;1.30;0.60;;;9.20;99.90;;;;;;5075182;28;20423;-68
2023/03/25 10:51:11;;;;;;;1.33;0.60;;;9.00;99.90;;;;;;5093103;28;20537;-68
2023/03/25 10:53:39;;;;;;;1.30;0.73;;;8.80;99.90;;;;;;5091230;28;20415;-68
2023/03/25 10:56:14;;;;;;;1.30;0.50;;;8.70;99.90;;;;;;5093230;28;20871;-68
2023/03/25 10:58:42;;;;;;;2.57;0.97;;;8.70;99.90;;;;;;5072179;28;20421;-68
2023/03/25 11:01:17;;;;;;;2.17;0.80;;;8.60;99.90;;;;;;5093361;28;20467;-68
2023/03/25 11:03:46;;;;;;;1.40;0.60;;;8.50;99.90;;;;;;5092606;28;20424;-68
2023/03/25 11:06:29;;;;;;;2.10;0.90;;;8.60;99.90;;;;;;5092432;28;20426;-71
2023/03/25 11:09:07;;;;;;;3.83;0.80;;;8.80;99.90;;;;;;5089051;28;20406;-69
2023/03/25 11:11:34;;;;;;;1.50;0.60;;;9.20;99.90;;;;;;5089330;28;20983;-68
2023/03/25 11:14:02;;;;;;;1.53;0.70;;;9.30;99.90;;;;;;5091677;28;20418;-68
2023/03/25 11:16:33;;;;;;;1.37;0.53;;;9.30;99.90;;;;;;5092708;28;20414;-68
2023/03/25 11:19:03;;;;;;;2.30;1.00;;;9.20;99.90;;;;;;5092501;28;20450;-68
2023/03/25 11:21:34;;;;;;;1.77;0.93;;;9.20;99.90;;;;;;5090636;28;20409;-68
2023/03/25 11:24:00;;;;;;;2.70;1.17;;;9.20;99.90;;;;;;5092567;28;20418;-68
2023/03/25 11:26:39;;;;;;;2.30;0.60;;;8.90;99.90;;;;;;5092507;28;20875;-68
2023/03/25 11:29:10;;;;;;;1.97;0.50;;;8.60;99.90;;;;;;5091723;28;20453;-68
2023/03/25 11:31:37;;;;;;;1.50;0.60;;;8.30;99.90;;;;;;5092091;28;20462;-68
2023/03/25 11:34:20;;;;;;;1.53;0.80;;;8.20;99.90;;;;;;5092001;28;20446;-68
2023/03/25 11:36:58;;;;;;;1.60;0.80;;;8.20;99.90;;;;;;5092406;28;20414;-69
2023/03/25 11:39:38;;;;;;;1.20;0.60;;;8.50;99.90;;;;;;5092264;28;20418;-69
2023/03/25 11:42:17;;;;;;;1.30;0.60;;;8.70;99.90;;;;;;5091860;28;20871;-69
2023/03/25 11:44:51;;;;;;;1.50;0.70;;;8.90;99.90;;;;;;5091914;28;20761;-68
2023/03/25 11:47:24;;;;;;;2.27;0.80;;;9.10;99.90;;;;;;5092957;28;20421;-70
2023/03/25 11:49:52;;;;;;;2.27;0.93;;;9.10;99.90;;;;;;5092298;28;20418;-69
2023/03/25 11:52:22;;;;;;;1.30;0.60;;;9.20;99.90;;;;;;5090630;28;20918;-69
2023/03/25 11:54:50;;;;;;;1.10;0.40;;;9.50;99.90;;;;;;5091907;28;20973;-69
2023/03/25 11:57:23;;;;;;;1.10;0.40;;;9.70;99.90;;;;;;5091913;28;20415;-69
2023/03/25 11:59:56;;;;;;;1.70;0.60;;;9.90;99.90;;;;;;5091029;28;20417;-69
2023/03/25 12:02:35;;;;;;;1.20;0.60;;;10.10;99.90;;;;;;5091493;28;20406;-69
2023/03/25 12:05:02;;;;;;;1.50;0.63;;;10.10;99.90;;;;;;5088025;28;20519;-69
2023/03/25 12:07:28;;;;;;;2.27;0.60;;;10.20;99.90;;;;;;5091622;28;20437;-69
2023/03/25 12:09:56;;;;;;;1.70;0.90;;;10.00;99.90;;;;;;5091580;28;21164;-69
2023/03/25 12:12:46;;;;;;;1.17;0.53;;;9.90;99.90;;;;;;5090874;28;20552;-70
2023/03/25 12:15:20;;;;;;;1.73;0.60;;;9.80;99.90;;;;;;5091510;28;21092;-69
2023/03/25 12:18:20;;;;;;;1.63;0.70;;;10.00;99.90;;;;;;5091585;28;20411;-69
2023/03/25 12:21:26;;;;;;;5.03;0.70;;;10.10;99.90;;;;;;5087643;28;20843;-70
2023/03/25 12:24:24;;;;;;;1.30;0.60;;;10.40;99.90;;;;;;5086205;28;20448;-70
2023/03/25 12:27:06;;;;;;;2.37;1.03;;;10.50;99.60;;;;;;5086624;28;20410;-70
2023/03/25 12:29:50;;;;;;;1.40;0.50;;;10.60;99.90;;;;;;5090401;28;20409;-70
2023/03/25 12:32:41;;;;;;;1.70;0.70;;;10.50;99.90;;;;;;5090823;28;20418;-70
2023/03/25 12:35:30;;;;;;;1.90;0.57;;;10.50;99.90;;;;;;5090605;28;20415;-71
2023/03/25 12:37:55;;;;;;;3.30;0.53;;;10.40;99.90;;;;;;5091367;28;20922;-70
2023/03/25 12:40:44;;;;;;;1.20;0.60;;;10.10;99.90;;;;;;5091023;28;20410;-70
2023/03/25 12:43:18;;;;;;;1.20;0.50;;;9.90;99.90;;;;;;5072588;28;20196;-70
2023/03/25 12:46:06;;;;;;;1.30;0.60;;;9.60;99.90;;;;;;5088540;28;20492;-70
2023/03/25 12:48:53;;;;;;;1.57;0.57;;;9.50;99.90;;;;;;5085070;28;20415;-70
2023/03/25 12:51:41;;;;;;;1.20;0.60;;;9.50;99.90;;;;;;5090889;28;20487;-70
2023/03/25 12:54:40;;;;;;;1.10;0.40;;;9.40;99.90;;;;;;5091065;28;20941;-70
2023/03/25 12:57:37;;;;;;;1.20;0.50;;;9.40;99.90;;;;;;5093618;28;20486;-70
2023/03/25 13:00:14;;;;;;;1.10;0.50;;;9.70;99.90;;;;;;5091114;28;20441;-70
2023/03/25 13:03:11;;;;;;;1.20;0.50;;;10.00;99.90;;;;;;5090509;28;20433;-70
2023/03/25 13:05:43;;;;;;;2.33;0.50;;;10.10;99.90;;;;;;5084115;28;21153;-70
2023/03/25 13:08:30;;;;;;;1.40;0.50;;;10.50;99.90;;;;;;5090682;28;20403;-71
2023/03/25 13:11:08;;;;;;;4.67;1.07;;;10.60;99.90;;;;;;5090669;28;20458;-69
2023/03/25 13:13:37;;;;;;;4.50;0.60;;;10.50;99.90;;;;;;5082789;28;20410;-69
2023/03/25 13:16:05;;;;;;;3.23;0.83;;;10.50;99.90;;;;;;5071359;28;21100;-69
2023/03/25 13:18:54;;;;;;;1.80;0.70;;;10.20;99.90;;;;;;5090799;28;20425;-72